Time;durP1;ratioP1;P1;durP2;ratioP2;P2;SDS_P1;SDS_P2;PMS_P1;PMS_P2;Temp;Humidity;BMP_temperature;BMP_pressure;BME280_temperature;BME280_humidity;BME280_pressure;Samples;Min_cycle;Max_cycle;Signal;HPM_P1;HPM_P2
2023/10/23 00:02:19;;;;;;;17.33;6.63;;;;;;;8.66;100.00;101079.00;4868816;29;20043;-96
2023/10/23 00:04:47;;;;;;;15.38;6.93;;;;;;;8.65;100.00;101080.88;4868356;29;20036;-96
2023/10/23 00:07:22;;;;;;;14.63;7.07;;;;;;;8.66;100.00;101074.41;4869100;29;20040;-96
2023/10/23 00:09:48;;;;;;;13.85;6.10;;;;;;;8.64;100.00;101079.19;4884720;29;20055;-96
2023/10/23 00:12:13;;;;;;;12.80;6.27;;;;;;;8.60;100.00;101084.13;4884483;29;20115;-96
2023/10/23 00:14:39;;;;;;;15.40;6.50;;;;;;;8.63;100.00;101084.81;4882230;29;20037;-96
2023/10/23 00:17:14;;;;;;;12.90;6.88;;;;;;;8.56;100.00;101079.31;4864538;29;20834;-96
2023/10/23 00:19:40;;;;;;;14.73;6.38;;;;;;;8.52;100.00;101086.16;4881042;29;20049;-96
2023/10/23 00:22:05;;;;;;;17.52;6.72;;;;;;;8.47;100.00;101085.91;4893659;29;20028;-96
2023/10/23 00:24:31;;;;;;;12.50;6.20;;;;;;;8.48;100.00;101093.84;4897841;29;20036;-96
2023/10/23 00:26:58;;;;;;;12.93;6.38;;;;;;;8.46;100.00;101090.50;4883027;29;20028;-96
2023/10/23 00:29:32;;;;;;;13.87;6.23;;;;;;;8.47;100.00;101085.91;4882715;29;20477;-96
2023/10/23 00:32:00;;;;;;;15.35;6.38;;;;;;;8.43;100.00;101086.28;4883081;29;20043;-96
2023/10/23 00:34:26;;;;;;;20.38;6.72;;;;;;;8.39;100.00;101081.47;4882803;29;20048;-96
2023/10/23 00:36:54;;;;;;;11.67;6.20;;;;;;;8.41;100.00;101093.75;4883786;29;20038;-96
2023/10/23 00:39:19;;;;;;;15.88;6.18;;;;;;;8.39;100.00;101095.81;4894908;29;20108;-96
2023/10/23 00:41:45;;;;;;;11.35;5.93;;;;;;;8.37;100.00;101092.47;4882512;29;20068;-96
2023/10/23 00:44:14;;;;;;;15.20;6.03;;;;;;;8.32;100.00;101089.50;4882417;29;20029;-96
2023/10/23 00:46:43;;;;;;;12.30;6.03;;;;;;;8.31;100.00;101090.56;4882159;29;20029;-96
2023/10/23 00:49:09;;;;;;;17.02;6.72;;;;;;;8.33;100.00;101093.88;4882365;29;20111;-96
2023/10/23 00:51:35;;;;;;;15.20;5.90;;;;;;;8.33;100.00;101095.75;4882748;29;20111;-96
2023/10/23 00:54:05;;;;;;;12.95;6.18;;;;;;;8.32;100.00;101102.19;4882307;29;20027;-96
2023/10/23 00:56:34;;;;;;;16.73;6.32;;;;;;;8.35;100.00;101096.41;4882766;29;20119;-96
2023/10/23 00:59:03;;;;;;;15.88;6.50;;;;;;;8.36;100.00;101098.91;4882699;29;20040;-96
2023/10/23 01:01:34;;;;;;;16.15;6.45;;;;;;;8.37;100.00;101108.69;4882861;29;20557;-96
2023/10/23 01:04:04;;;;;;;15.20;6.97;;;;;;;8.38;100.00;101104.13;4878729;29;20039;-96
2023/10/23 01:06:33;;;;;;;16.95;6.18;;;;;;;8.38;100.00;101118.47;4882391;29;20044;-96
2023/10/23 01:09:01;;;;;;;14.00;6.30;;;;;;;8.38;100.00;101117.63;4882540;29;20040;-96
2023/10/23 01:11:34;;;;;;;15.65;5.80;;;;;;;8.34;100.00;101114.50;4882195;29;20036;-96
2023/10/23 01:13:59;;;;;;;16.70;6.50;;;;;;;8.35;100.00;101120.72;4882403;29;20043;-95
2023/10/23 01:16:27;;;;;;;16.40;6.07;;;;;;;8.34;100.00;101117.19;4882303;29;20032;-95
2023/10/23 01:18:55;;;;;;;13.50;5.90;;;;;;;8.36;100.00;101123.25;4881181;29;20045;-96
2023/10/23 01:21:20;;;;;;;15.60;6.93;;;;;;;8.35;100.00;101120.72;4882008;29;20119;-95
2023/10/23 01:23:52;;;;;;;15.82;6.03;;;;;;;8.31;100.00;101119.44;4882193;29;20123;-96
2023/10/23 01:26:17;;;;;;;13.07;6.00;;;;;;;8.29;100.00;101118.81;4882352;29;20032;-96
2023/10/23 01:28:45;;;;;;;15.90;6.53;;;;;;;8.24;100.00;101122.09;4867406;29;20550;-96
2023/10/23 01:31:11;;;;;;;21.00;6.13;;;;;;;8.20;100.00;101118.91;4885501;29;20039;-96
2023/10/23 01:33:36;;;;;;;14.03;6.00;;;;;;;8.15;100.00;101112.41;4885189;29;20028;-96
2023/10/23 01:36:08;;;;;;;14.00;6.50;;;;;;;8.11;100.00;101113.84;4870326;29;20040;-95
2023/10/23 01:38:36;;;;;;;16.02;6.22;;;;;;;8.05;100.00;101113.56;4885514;29;20069;-96
2023/10/23 01:41:04;;;;;;;14.63;5.93;;;;;;;8.03;100.00;101112.94;4869614;29;20550;-95
2023/10/23 01:43:32;;;;;;;13.02;5.72;;;;;;;7.97;100.00;101105.63;4885519;29;20033;-96
2023/10/23 01:45:59;;;;;;;19.10;6.35;;;;;;;7.93;100.00;101108.88;4873192;29;20037;-96
2023/10/23 01:48:26;;;;;;;14.73;5.90;;;;;;;7.87;100.00;101103.22;4916897;29;20132;-96
2023/10/23 01:50:54;;;;;;;14.45;6.35;;;;;;;7.84;100.00;101105.44;4885665;29;20032;-96
2023/10/23 01:53:30;;;;;;;13.57;6.55;;;;;;;7.82;100.00;101108.34;4885335;29;20056;-96
2023/10/23 01:55:56;;;;;;;18.13;5.75;;;;;;;7.81;100.00;101106.69;4885429;29;20028;-96
2023/10/23 01:58:21;;;;;;;15.40;6.30;;;;;;;7.78;100.00;101101.66;4885164;29;20036;-96
2023/10/23 02:00:47;;;;;;;15.13;6.00;;;;;;;7.78;100.00;101103.50;4885361;29;20043;-96
2023/10/23 02:03:15;;;;;;;15.00;6.23;;;;;;;7.79;100.00;101105.19;4884547;29;20493;-96
2023/10/23 02:05:40;;;;;;;18.45;5.95;;;;;;;7.71;100.00;101098.88;4885261;29;20024;-96
2023/10/23 02:08:26;;;;;;;13.13;5.90;;;;;;;7.69;100.00;101108.19;4869688;29;20044;-96
2023/10/23 02:10:53;;;;;;;18.77;6.28;;;;;;;7.67;100.00;101102.97;4885183;29;20033;-96
2023/10/23 02:13:21;;;;;;;16.08;6.65;;;;;;;7.67;100.00;101111.06;4884831;29;20036;-96
2023/10/23 02:15:49;;;;;;;18.37;5.90;;;;;;;7.65;100.00;101113.16;4884854;29;20044;-95
2023/10/23 02:18:17;;;;;;;13.30;6.03;;;;;;;7.61;100.00;101125.34;4869249;29;20036;-95
2023/10/23 02:20:45;;;;;;;19.45;6.07;;;;;;;7.62;100.00;101115.38;4869211;29;20087;-96
2023/10/23 02:23:16;;;;;;;14.10;5.68;;;;;;;7.60;100.00;101123.66;4869347;29;20041;-96
2023/10/23 02:25:46;;;;;;;16.30;6.63;;;;;;;7.64;100.00;101126.84;4884789;29;20115;-96
2023/10/23 02:28:17;;;;;;;14.30;6.23;;;;;;;7.66;100.00;101138.28;4885071;29;20036;-95
2023/10/23 02:30:42;;;;;;;16.52;6.55;;;;;;;7.67;100.00;101137.25;4884611;29;20032;-96
2023/10/23 02:33:08;;;;;;;17.43;6.37;;;;;;;7.65;100.00;101137.44;4869309;29;20474;-96
2023/10/23 02:35:40;;;;;;;12.60;6.15;;;;;;;7.60;100.00;101131.75;4886202;29;20297;-96
2023/10/23 02:38:06;;;;;;;19.55;6.55;;;;;;;7.64;100.00;101137.63;4903461;29;20037;-96
2023/10/23 02:40:34;;;;;;;15.63;6.03;;;;;;;7.63;100.00;101136.81;4870248;29;20137;-96
2023/10/23 02:42:59;;;;;;;19.30;6.60;;;;;;;7.65;100.00;101139.31;4865765;29;20029;-96
2023/10/23 02:45:25;;;;;;;17.40;6.43;;;;;;;7.63;100.00;101138.66;4880049;29;20438;-96
2023/10/23 02:47:50;;;;;;;14.13;6.40;;;;;;;7.60;100.00;101130.94;4884606;29;20385;-96
2023/10/23 02:50:21;;;;;;;17.53;6.20;;;;;;;7.54;100.00;101132.53;4884525;29;20123;-96
2023/10/23 02:52:46;;;;;;;14.93;6.32;;;;;;;7.53;100.00;101131.69;4884274;29;20039;-96
2023/10/23 02:55:12;;;;;;;16.53;6.00;;;;;;;7.49;100.00;101132.25;4883547;29;20032;-96
2023/10/23 02:57:43;;;;;;;14.97;6.77;;;;;;;7.49;100.00;101148.47;4884179;29;20060;-96
2023/10/23 03:00:12;;;;;;;15.20;6.03;;;;;;;7.45;100.00;101136.34;4881281;29;20128;-94
2023/10/23 03:02:44;;;;;;;14.55;6.03;;;;;;;7.41;100.00;101127.81;4874333;29;20085;-96
2023/10/23 03:05:10;;;;;;;13.32;6.38;;;;;;;7.38;100.00;101134.41;4868923;29;20394;-96
2023/10/23 03:07:35;;;;;;;13.67;6.17;;;;;;;7.37;100.00;101131.91;4884520;29;20043;-96
2023/10/23 03:10:01;;;;;;;13.90;6.13;;;;;;;7.32;100.00;101128.91;4883701;29;20028;-96
2023/10/23 03:12:26;;;;;;;16.80;6.90;;;;;;;7.29;100.00;101135.53;4868235;29;20041;-96
2023/10/23 03:14:52;;;;;;;16.10;6.28;;;;;;;7.26;100.00;101135.88;4887391;29;20032;-96
2023/10/23 03:17:23;;;;;;;12.57;5.77;;;;;;;7.24;100.00;101137.94;4892873;29;20032;-96
2023/10/23 03:19:48;;;;;;;12.27;5.72;;;;;;;7.19;100.00;101134.97;4883830;29;20036;-96
2023/10/23 03:22:23;;;;;;;12.73;6.00;;;;;;;7.17;100.00;101143.25;4883571;29;20025;-96
2023/10/23 03:24:52;;;;;;;11.00;5.65;;;;;;;7.10;100.00;101147.72;4883276;29;20032;-96
2023/10/23 03:27:21;;;;;;;13.40;5.05;;;;;;;7.05;100.00;101139.34;4883504;29;20056;-96
2023/10/23 03:30:05;;;;;;;13.32;6.05;;;;;;;7.02;100.00;101137.00;4906607;29;20038;-96
2023/10/23 03:32:36;;;;;;;14.60;5.57;;;;;;;7.02;100.00;101137.00;4899617;29;20127;-96
2023/10/23 03:35:03;;;;;;;10.68;5.18;;;;;;;6.97;100.00;101136.75;4868300;29;20052;-96
2023/10/23 03:37:30;;;;;;;14.02;5.20;;;;;;;6.93;100.00;101136.25;4883532;29;20085;-96
2023/10/23 03:39:56;;;;;;;11.82;5.35;;;;;;;6.89;100.00;101139.50;4910201;29;20066;-96
2023/10/23 03:42:24;;;;;;;10.77;5.17;;;;;;;6.85;100.00;101139.88;4902296;29;20071;-96
2023/10/23 03:44:50;;;;;;;14.23;5.53;;;;;;;6.80;100.00;101146.84;4902034;29;20035;-96
2023/10/23 03:47:18;;;;;;;16.10;4.90;;;;;;;6.77;100.00;101139.94;4885817;29;20028;-96
2023/10/23 03:49:50;;;;;;;8.38;4.15;;;;;;;6.76;100.00;101145.53;4883320;29;20295;-95
2023/10/23 03:52:16;;;;;;;11.38;4.75;;;;;;;6.72;100.00;101144.22;4883839;29;20028;-94
2023/10/23 03:54:44;;;;;;;14.18;5.70;;;;;;;6.70;100.00;101143.56;4894150;29;20036;-95
2023/10/23 03:57:12;;;;;;;13.63;4.70;;;;;;;6.70;100.00;101146.25;4886864;29;20544;-94
2023/10/23 03:59:41;;;;;;;11.30;5.00;;;;;;;6.66;100.00;101141.22;4901950;29;20062;-96
2023/10/23 04:02:07;;;;;;;14.48;5.80;;;;;;;6.63;100.00;101148.88;4900331;29;20033;-96
2023/10/23 04:04:37;;;;;;;11.55;4.57;;;;;;;6.60;100.00;101146.50;4882880;29;20043;-95
2023/10/23 04:07:03;;;;;;;9.53;4.63;;;;;;;6.58;100.00;101149.38;4855260;29;20037;-95
2023/10/23 04:09:31;;;;;;;10.88;5.00;;;;;;;6.58;100.00;101156.66;4882941;29;20028;-94
2023/10/23 04:11:57;;;;;;;14.70;4.85;;;;;;;6.55;100.00;101155.13;4882930;29;20040;-95
2023/10/23 04:14:22;;;;;;;8.70;4.90;;;;;;;6.52;100.00;101157.38;4882590;29;20033;-96
2023/10/23 04:16:51;;;;;;;9.43;4.77;;;;;;;6.52;100.00;101151.97;4883026;29;20031;-95
2023/10/23 04:19:19;;;;;;;8.75;4.75;;;;;;;6.48;100.00;101144.25;4867799;29;20033;-96
2023/10/23 04:21:47;;;;;;;11.70;4.82;;;;;;;6.42;100.00;101141.44;4867095;29;20040;-95
2023/10/23 04:24:18;;;;;;;9.38;4.82;;;;;;;6.41;100.00;101155.94;4897896;29;20123;-96
2023/10/23 04:26:45;;;;;;;10.75;4.70;;;;;;;6.36;100.00;101151.06;4876238;29;20541;-96
2023/10/23 04:29:11;;;;;;;12.02;3.97;;;;;;;6.31;100.00;101151.63;4886318;29;20064;-96
2023/10/23 04:31:40;;;;;;;13.60;4.40;;;;;;;6.27;100.00;101153.00;4882786;29;20111;-96
2023/10/23 04:34:05;;;;;;;11.40;4.30;;;;;;;6.23;100.00;101149.00;4882378;29;20040;-95
2023/10/23 04:36:31;;;;;;;8.93;4.03;;;;;;;6.19;100.00;101158.44;4883011;29;20573;-95
2023/10/23 04:38:57;;;;;;;14.63;4.57;;;;;;;6.17;100.00;101159.63;4882859;29;20072;-94
2023/10/23 04:41:24;;;;;;;12.98;4.07;;;;;;;6.13;100.00;101162.69;4882734;29;20470;-95
2023/10/23 04:43:50;;;;;;;9.35;4.13;;;;;;;6.11;100.00;101163.88;4882615;29;20144;-95
2023/10/23 04:46:18;;;;;;;8.18;4.05;;;;;;;6.12;100.00;101163.69;4867205;29;20462;-95
2023/10/23 04:48:46;;;;;;;9.40;4.15;;;;;;;6.12;100.00;101161.00;4882493;29;20044;-95
2023/10/23 04:51:13;;;;;;;9.95;4.75;;;;;;;6.15;100.00;101160.66;4882864;29;20032;-94
2023/10/23 04:53:39;;;;;;;15.65;4.90;;;;;;;6.17;100.00;101163.19;4899916;29;20024;-94
2023/10/23 04:56:15;;;;;;;14.55;4.85;;;;;;;6.14;100.00;101155.44;4883193;29;20077;-94
2023/10/23 04:58:41;;;;;;;11.90;4.70;;;;;;;6.11;100.00;101155.81;4867811;29;20033;-95
2023/10/23 05:01:22;;;;;;;12.57;4.50;;;;;;;6.04;100.00;101147.59;4883878;29;20089;-95
2023/10/23 05:03:52;;;;;;;15.80;4.80;;;;;;;6.06;100.00;101144.75;4883136;29;20056;-95
2023/10/23 05:06:20;;;;;;;12.35;5.00;;;;;;;6.03;100.00;101143.22;4886125;29;20035;-95
2023/10/23 05:08:46;;;;;;;11.73;4.35;;;;;;;6.03;100.00;101147.78;4886046;29;20422;-96
2023/10/23 05:11:13;;;;;;;10.07;4.53;;;;;;;6.04;100.00;101162.91;4886084;29;20036;-96
2023/10/23 05:13:45;;;;;;;9.35;4.60;;;;;;;5.97;100.00;101157.41;4886175;29;20059;-95
2023/10/23 05:16:17;;;;;;;10.20;4.13;;;;;;;5.96;100.00;101155.69;4886855;29;20119;-94
2023/10/23 05:18:42;;;;;;;13.23;4.60;;;;;;;5.90;100.00;101157.25;4886413;29;20123;-93
2023/10/23 05:21:12;;;;;;;10.27;4.27;;;;;;;5.91;100.00;101152.72;4887415;29;20394;-93
2023/10/23 05:23:48;;;;;;;14.02;4.82;;;;;;;5.88;100.00;101153.06;4885681;29;20028;-95
2023/10/23 05:26:32;;;;;;;15.43;4.88;;;;;;;5.90;100.00;101151.84;4882140;29;20037;-94
2023/10/23 05:28:57;;;;;;;11.23;4.90;;;;;;;5.88;100.00;101151.19;4885314;29;20462;-93
2023/10/23 05:31:33;;;;;;;;;;;;;;;;;;;;;
2023/10/23 05:34:08;;;;;;;15.48;5.20;;;;;;;5.86;100.00;101145.16;4900180;29;20035;-95
2023/10/23 05:36:54;;;;;;;8.67;4.70;;;;;;;5.83;100.00;101145.53;4883822;29;20128;-94
2023/10/23 05:39:20;;;;;;;10.70;5.18;;;;;;;5.84;100.00;101143.66;4867989;29;20112;-94
2023/10/23 05:41:50;;;;;;;17.00;5.40;;;;;;;5.83;100.00;101150.91;4879059;29;20048;-93
2023/10/23 05:44:23;;;;;;;13.18;5.07;;;;;;;5.80;100.00;101149.41;4885669;29;20036;-93
2023/10/23 05:46:53;;;;;;;13.48;4.80;;;;;;;5.77;100.00;101155.16;4870688;29;20063;-93
2023/10/23 05:49:21;;;;;;;11.48;4.90;;;;;;;5.77;100.00;101154.28;4885658;29;20080;-93
2023/10/23 05:51:47;;;;;;;10.95;4.82;;;;;;;5.75;100.00;101149.06;4869918;29;20036;-94
2023/10/23 05:54:19;;;;;;;10.55;4.93;;;;;;;5.76;100.00;101155.31;4885766;29;20038;-94
2023/10/23 05:56:47;;;;;;;14.07;5.15;;;;;;;5.81;100.00;101161.00;4885642;29;20096;-94
2023/10/23 05:59:27;;;;;;;11.38;4.55;;;;;;;5.76;100.00;101156.16;4885722;29;20041;-95
2023/10/23 06:01:55;;;;;;;16.33;5.20;;;;;;;5.77;100.00;101155.16;4870949;29;20123;-94
2023/10/23 06:04:20;;;;;;;16.27;5.13;;;;;;;5.76;100.00;101148.06;4871281;29;20386;-94
2023/10/23 06:06:55;;;;;;;11.90;5.10;;;;;;;5.75;100.00;101140.16;4886353;29;20025;-93
2023/10/23 06:09:29;;;;;;;12.48;5.28;;;;;;;5.74;100.00;101142.03;4888037;29;20057;-93
2023/10/23 06:11:57;;;;;;;14.52;4.90;;;;;;;5.74;100.00;101147.41;4901567;29;20501;-93
2023/10/23 06:14:25;;;;;;;17.17;5.93;;;;;;;5.77;100.00;101155.16;4884403;29;20036;-94
2023/10/23 06:16:53;;;;;;;15.53;5.30;;;;;;;5.75;100.00;101151.78;4883030;29;20136;-92
2023/10/23 06:19:26;;;;;;;11.93;5.13;;;;;;;5.72;100.00;101145.91;4883017;29;20490;-92
2023/10/23 06:22:15;;;;;;;14.95;5.40;;;;;;;5.70;100.00;101148.78;4870212;29;20457;-93
2023/10/23 06:24:40;;;;;;;14.73;4.63;;;;;;;5.74;100.00;101152.81;4900700;29;20043;-93
2023/10/23 06:27:08;;;;;;;10.20;5.10;;;;;;;5.73;100.00;101147.59;4868990;29;20131;-92
2023/10/23 06:29:35;;;;;;;11.95;5.03;;;;;;;5.75;100.00;101142.88;4887892;29;20040;-93
2023/10/23 06:32:01;;;;;;;11.18;5.20;;;;;;;5.75;100.00;101154.47;4891059;29;20569;-93
2023/10/23 06:34:30;;;;;;;15.02;5.43;;;;;;;5.76;100.00;101152.63;4887167;29;20496;-90
2023/10/23 06:36:58;;;;;;;18.07;5.63;;;;;;;5.80;100.00;101148.53;4885210;29;20045;-92
2023/10/23 06:39:25;;;;;;;15.27;5.45;;;;;;;5.80;100.00;101156.63;4902860;29;20185;-92
2023/10/23 06:41:51;;;;;;;14.45;5.57;;;;;;;5.84;100.00;101152.56;4884456;29;20091;-93
2023/10/23 06:44:19;;;;;;;13.37;5.63;;;;;;;5.89;100.00;101152.03;4884207;29;20172;-92
2023/10/23 06:46:44;;;;;;;14.20;5.75;;;;;;;5.94;100.00;101152.34;4884538;29;20120;-93
2023/10/23 06:49:12;;;;;;;18.07;5.60;;;;;;;6.01;100.00;101152.50;4892604;29;20151;-93
2023/10/23 06:51:40;;;;;;;16.02;6.00;;;;;;;6.04;100.00;101144.91;4883531;29;20033;-92
2023/10/23 06:54:06;;;;;;;17.67;5.65;;;;;;;6.08;100.00;101145.38;4883395;29;20111;-92
2023/10/23 06:56:33;;;;;;;17.03;5.63;;;;;;;6.14;100.00;101150.06;4868155;29;20093;-92
2023/10/23 06:58:59;;;;;;;19.20;5.30;;;;;;;6.21;100.00;101147.50;4883932;29;20075;-93
2023/10/23 07:01:24;;;;;;;13.90;5.70;;;;;;;6.27;100.00;101144.06;4882977;29;20123;-93
2023/10/23 07:03:50;;;;;;;15.73;5.67;;;;;;;6.35;100.00;101144.03;4907746;29;20142;-92
2023/10/23 07:06:16;;;;;;;15.80;6.00;;;;;;;6.40;100.00;101143.47;4900723;29;20028;-93
2023/10/23 07:08:41;;;;;;;13.47;5.43;;;;;;;6.49;100.00;101151.31;4883854;29;20035;-93
2023/10/23 09:14:13;;;;;;;;;;;;;;;;;;;;;
2023/10/23 09:17:13;;;;;;;10.95;4.13;;;;;;;12.09;100.00;101118.66;4602675;23;20311;-91
2023/10/23 09:19:59;;;;;;;;;;;;;;;;;;;;;
2023/10/23 09:22:33;;;;;;;11.02;4.30;;;;;;;12.41;100.00;101120.53;4884873;29;20144;-96
2023/10/23 09:25:07;;;;;;;12.10;4.03;;;;;;;12.55;100.00;101118.53;4868053;29;20029;-96
2023/10/23 09:27:39;;;;;;;9.35;4.32;;;;;;;12.69;100.00;101117.38;4871814;29;20035;-96
2023/10/23 09:30:20;;;;;;;11.77;4.10;;;;;;;12.79;100.00;101114.97;4869589;29;20044;-96
2023/10/23 09:33:14;;;;;;;12.90;4.10;;;;;;;13.00;100.00;101110.16;4852980;29;20623;-96
2023/10/23 09:35:50;;;;;;;8.40;3.30;;;;;;;13.13;100.00;101112.75;4861377;29;20029;-96
2023/10/23 09:38:20;;;;;;;10.35;3.85;;;;;;;13.30;100.00;101104.81;4851088;29;20037;-96
2023/10/23 09:41:00;;;;;;;9.90;3.60;;;;;;;13.47;100.00;101102.34;4884622;29;20041;-96
2023/10/23 09:43:28;;;;;;;7.82;3.40;;;;;;;13.65;100.00;101103.38;4853690;29;20068;-96
2023/10/23 09:45:57;;;;;;;9.40;3.90;;;;;;;13.77;100.00;101096.06;4883444;29;20033;-96
2023/10/23 09:48:28;;;;;;;7.28;3.33;;;;;;;13.90;100.00;101096.97;4866591;29;20450;-96
2023/10/23 09:51:03;;;;;;;7.82;3.05;;;;;;;13.99;100.00;101098.28;4868423;29;20029;-96
2023/10/23 09:53:30;;;;;;;8.52;3.10;;;;;;;14.08;100.00;101098.81;4871316;29;20033;-96
2023/10/23 09:56:04;;;;;;;9.63;3.20;;;;;;;14.15;100.00;101105.00;4851838;29;20494;-96
2023/10/23 09:58:33;;;;;;;13.00;3.97;;;;;;;14.26;100.00;101106.09;4866680;29;20399;-96
2023/10/23 10:01:04;;;;;;;7.55;3.08;;;;;;;14.32;100.00;101103.25;4859241;29;20101;-96
2023/10/23 10:03:55;;;;;;;10.82;2.83;;;;;;;14.36;100.00;101098.16;4871124;29;20500;-96
2023/10/23 10:06:28;;;;;;;13.52;2.88;;;;;;;14.55;100.00;101096.16;4882523;29;20085;-90
2023/10/23 10:08:55;;;;;;;7.53;2.80;;;;;;;14.77;100.00;101101.91;4869654;29;20043;-91
2023/10/23 10:11:21;;;;;;;11.53;2.93;;;;;;;14.92;100.00;101090.50;4870922;29;20084;-93
2023/10/23 10:13:48;;;;;;;13.23;3.35;;;;;;;15.03;100.00;101089.66;4877663;29;20045;-91
2023/10/23 10:16:33;;;;;;;7.95;2.80;;;;;;;15.23;100.00;101085.72;4870161;29;20395;-94
2023/10/23 10:18:59;;;;;;;12.45;3.25;;;;;;;15.33;100.00;101085.13;4856937;29;20025;-92
2023/10/23 10:21:27;;;;;;;10.83;2.97;;;;;;;15.46;100.00;101078.50;4870247;29;20093;-94
2023/10/23 10:23:58;;;;;;;21.58;3.58;;;;;;;15.65;100.00;101087.38;4879680;29;20085;-93
2023/10/23 10:26:48;;;;;;;12.38;2.97;;;;;;;15.85;100.00;101076.03;4872255;29;20029;-96
2023/10/23 10:29:16;;;;;;;10.60;2.83;;;;;;;16.00;100.00;101076.31;4856825;29;20382;-92
2023/10/23 10:32:06;;;;;;;7.55;2.25;;;;;;;16.20;100.00;101067.63;4866552;29;20097;-92
2023/10/23 10:34:37;;;;;;;10.67;2.43;;;;;;;16.21;100.00;101066.56;4866132;29;20045;-96
2023/10/23 10:37:05;;;;;;;10.18;2.78;;;;;;;16.24;100.00;101060.59;4866989;29;20033;-89
2023/10/23 10:39:52;;;;;;;10.40;2.88;;;;;;;16.35;100.00;101068.97;4865242;29;20033;-90
2023/10/23 10:42:19;;;;;;;9.13;2.33;;;;;;;16.26;100.00;101063.91;4865025;29;20037;-91
2023/10/23 10:45:00;;;;;;;10.00;3.28;;;;;;;16.31;100.00;101058.53;4881458;29;20391;-91
2023/10/23 10:47:54;;;;;;;12.40;2.90;;;;;;;16.51;100.00;101054.44;4866112;29;20502;-90
2023/10/23 10:51:01;;;;;;;11.43;3.00;;;;;;;16.60;100.00;101046.63;4847367;29;20487;-93
2023/10/23 10:53:45;;;;;;;11.00;3.38;;;;;;;16.84;100.00;101044.50;4887251;29;20031;-92
2023/10/23 10:56:13;;;;;;;10.75;3.17;;;;;;;17.05;96.79;101040.19;4855535;29;20093;-90
2023/10/23 10:58:39;;;;;;;8.38;3.20;;;;;;;17.14;95.20;101037.81;4848576;29;20128;-91
2023/10/23 11:01:12;;;;;;;9.83;3.60;;;;;;;17.25;93.85;101028.63;4887488;29;20037;-90
2023/10/23 11:03:41;;;;;;;9.52;3.30;;;;;;;17.23;94.07;101013.50;4877406;29;20455;-91
2023/10/23 11:06:10;;;;;;;10.43;3.35;;;;;;;17.32;93.62;101012.00;4866157;29;20029;-90
2023/10/23 11:08:38;;;;;;;10.32;3.22;;;;;;;17.38;92.05;101000.00;4883544;29;20041;-91
2023/10/23 11:11:07;;;;;;;8.48;3.83;;;;;;;17.77;91.74;100996.25;4899980;29;20040;-90
2023/10/23 11:13:35;;;;;;;13.60;3.43;;;;;;;17.83;90.87;100992.47;4878791;29;20375;-91
2023/10/23 11:16:06;;;;;;;11.93;2.97;;;;;;;17.90;89.63;100995.06;4864312;29;20131;-90
2023/10/23 11:18:35;;;;;;;10.57;3.30;;;;;;;18.01;88.66;100991.28;4855304;29;20033;-91
2023/10/23 11:21:00;;;;;;;13.10;2.75;;;;;;;18.17;87.52;100986.75;4887360;29;20142;-90
2023/10/23 11:23:32;;;;;;;9.30;2.77;;;;;;;18.36;86.55;100984.41;4831634;29;20128;-90
2023/10/23 11:25:58;;;;;;;11.38;2.78;;;;;;;18.71;85.39;100983.81;4864065;29;20033;-91
2023/10/23 11:28:24;;;;;;;12.88;3.20;;;;;;;18.68;83.45;100980.78;4866036;29;20363;-90
2023/10/23 11:31:00;;;;;;;7.60;2.50;;;;;;;18.68;85.54;100964.28;4864013;29;20485;-91
2023/10/23 11:33:26;;;;;;;12.38;2.80;;;;;;;18.57;83.45;100966.97;4870333;29;20024;-90
2023/10/23 11:35:52;;;;;;;8.55;2.70;;;;;;;18.48;83.70;100952.06;4866458;29;20044;-91
2023/10/23 11:38:24;;;;;;;10.07;2.63;;;;;;;18.55;83.69;100958.16;4863485;29;20065;-90
2023/10/23 11:41:00;;;;;;;;;;;;;;;;;;;;;
2023/10/23 11:43:26;;;;;;;10.50;2.50;;;;;;;18.74;83.08;100942.03;4889326;29;20028;-91
2023/10/23 11:45:55;;;;;;;11.53;2.23;;;;;;;18.72;82.82;100946.13;4863011;29;20534;-90
2023/10/23 11:48:20;;;;;;;12.98;3.72;;;;;;;18.82;82.63;100937.94;4880397;29;20501;-90
2023/10/23 11:50:55;;;;;;;13.93;2.72;;;;;;;18.97;81.30;100929.00;4863625;29;20041;-91
2023/10/23 11:53:20;;;;;;;9.27;2.58;;;;;;;18.99;80.50;100923.22;4863208;29;20097;-91
2023/10/23 11:55:49;;;;;;;12.57;3.00;;;;;;;18.95;79.65;100925.66;4868455;29;20032;-91
2023/10/23 11:58:34;;;;;;;12.85;2.85;;;;;;;19.01;82.24;100921.81;4885622;29;20037;-91
2023/10/23 12:01:09;;;;;;;9.38;2.30;;;;;;;19.00;80.69;100914.69;4853677;29;20100;-91
2023/10/23 12:03:37;;;;;;;10.47;2.73;;;;;;;19.03;81.26;100916.91;4877706;29;20059;-90
2023/10/23 12:06:07;;;;;;;7.25;2.40;;;;;;;19.23;81.39;100901.53;4847726;29;20033;-91
2023/10/23 12:08:35;;;;;;;8.18;2.83;;;;;;;19.19;80.78;100900.41;4863718;29;20043;-91
2023/10/23 12:11:07;;;;;;;8.60;2.97;;;;;;;19.22;80.38;100911.72;4880102;29;20116;-91
2023/10/23 12:13:33;;;;;;;12.88;2.90;;;;;;;19.07;80.91;100907.03;4867589;29;20127;-91
2023/10/23 12:15:58;;;;;;;8.37;2.50;;;;;;;18.96;80.60;100905.31;4881383;29;20083;-90
2023/10/23 12:18:32;;;;;;;11.80;3.27;;;;;;;18.75;80.18;100896.97;4849259;29;20041;-91
2023/10/23 12:20:57;;;;;;;11.52;3.05;;;;;;;18.53;80.35;100896.34;4863238;29;20049;-91
2023/10/23 12:23:28;;;;;;;8.57;2.87;;;;;;;18.37;81.58;100884.44;4874537;29;20044;-91
2023/10/23 12:25:57;;;;;;;10.20;3.22;;;;;;;18.16;83.42;100881.59;4866233;29;20394;-92
2023/10/23 12:28:26;;;;;;;9.82;3.30;;;;;;;18.18;84.28;100875.84;4858845;29;20033;-91
2023/10/23 12:30:51;;;;;;;9.10;3.38;;;;;;;18.14;84.05;100871.97;4875908;29;20044;-91
2023/10/23 12:33:19;;;;;;;10.47;2.87;;;;;;;17.96;85.78;100865.81;4873765;29;20032;-91
2023/10/23 12:35:47;;;;;;;9.82;2.53;;;;;;;17.62;85.18;100857.84;4864017;29;20486;-91
2023/10/23 12:38:15;;;;;;;13.15;3.28;;;;;;;17.42;86.11;100858.53;4873504;29;20053;-91
2023/10/23 12:40:43;;;;;;;8.73;3.20;;;;;;;17.36;87.84;100863.13;4862421;29;20040;-91
2023/10/23 12:43:10;;;;;;;7.73;2.30;;;;;;;17.25;86.38;100863.28;4862983;29;20036;-91
2023/10/23 12:45:40;;;;;;;10.50;2.85;;;;;;;17.09;85.75;100856.84;4891260;29;20381;-92
2023/10/23 12:48:08;;;;;;;7.97;2.45;;;;;;;16.96;87.24;100856.16;4854417;29;20077;-91
2023/10/23 12:50:34;;;;;;;12.25;2.90;;;;;;;17.00;88.30;100849.06;4858567;29;20037;-91
2023/10/23 12:53:00;;;;;;;6.75;2.80;;;;;;;17.20;89.16;100847.63;4862342;29;20080;-91
2023/10/23 12:55:28;;;;;;;10.03;3.23;;;;;;;17.27;88.58;100844.66;4878587;29;20411;-91
2023/10/23 12:57:53;;;;;;;12.15;3.38;;;;;;;17.28;89.03;100840.84;4862767;29;20471;-91
2023/10/23 13:00:24;;;;;;;6.87;3.13;;;;;;;17.35;87.95;100831.31;4852445;29;20033;-91
2023/10/23 13:02:50;;;;;;;7.93;3.75;;;;;;;17.44;87.25;100825.34;4896234;29;20052;-91
2023/10/23 13:05:15;;;;;;;6.43;2.80;;;;;;;17.45;86.42;100826.97;4865452;29;20060;-91
2023/10/23 13:07:55;;;;;;;8.57;3.30;;;;;;;17.35;87.01;100825.81;4862684;29;20039;-91
2023/10/23 13:10:20;;;;;;;11.50;3.10;;;;;;;17.46;87.35;100821.22;4863354;29;20033;-92
2023/10/23 13:16:43;;;;;;;;;;;;;;;;;;;;;
2023/10/23 13:19:40;;;;;;;7.03;3.30;;;;;;;17.32;90.34;100803.59;4769560;30;20477;-94
2023/10/23 13:22:54;;;;;;;;;;;;;;;;;;;;;
2023/10/23 13:25:40;;;;;;;;;;;;;;;;;;;;;
2023/10/23 13:28:16;;;;;;;8.85;3.65;;;;;;;17.25;87.92;100792.00;4772059;30;20058;-95
2023/10/23 13:30:41;;;;;;;8.57;3.17;;;;;;;17.01;88.25;100792.34;4760761;30;20048;-90
2023/10/23 13:33:18;;;;;;;6.13;3.60;;;;;;;17.09;89.63;100780.91;4800373;29;20048;-91
2023/10/23 13:35:43;;;;;;;8.98;3.78;;;;;;;17.10;89.86;100776.25;4862640;29;20474;-91
2023/10/23 13:38:09;;;;;;;6.33;3.70;;;;;;;17.14;89.87;100766.41;4873923;29;20029;-91
2023/10/23 13:40:37;;;;;;;9.80;3.25;;;;;;;17.34;89.11;100768.50;4865905;29;20124;-91
2023/10/23 13:43:04;;;;;;;5.70;2.92;;;;;;;17.56;88.41;100765.63;4851523;29;20037;-90
2023/10/23 13:45:34;;;;;;;7.35;3.17;;;;;;;17.83;87.70;100764.69;4865989;29;20037;-90
2023/10/23 13:48:03;;;;;;;6.40;3.07;;;;;;;18.08;85.50;100763.22;4865704;29;20033;-90